首页
METAR-TAF:

METAR-TAF

机场 :

戴维斯-蒙森空军基地

图森, 亞利桑那州, 美国

纬度: 32-10N, 经度: 110-53W, 海拔: 824米

当前天气观测

该预报发布于41分钟前的10:55 UTC
风速6节,风向东转东南
温度 24°C
湿度 34%
气压 1009 hPa
能見度: 16.1公里
天空无云

METAR: KDMA 191055Z AUTO 11006KT 10SM CLR 24/07 A2981 RMK AO2 SLP087 T02360068 $

时间: 04:36 (11:36 UTC)

预报

该预报发布于36分钟前的11:00 UTC
预报有效从19日的 11点(UTC)到 20日的 17点(UTC)
风速9节,风向东转东南
能见度10公里或以上
天空无云
成为
从 19日的 17点(UTC)到 19日的 18点(UTC)
风速12节,风向西
能见度10公里或以上
天空无云
成为
从 20日的 05点(UTC)到 20日的 06点(UTC)
风速9节,风向东转东南
能见度10公里或以上
天空无云

TAF: KDMA 191100Z 1911/2017 12009KT 9999 SKC QNH2980INS BECMG 1917/1918 26012KT 9999 SKC QNH2968INS BECMG 2005/2006 12009KT 9999 SKC QNH2977INS TX39/1922Z TN22/1912Z

超过4000个机场的气象观测和天气预报(METAR&TAF报告)。

可查询的气象台以黄色和红色小点在地图上表示。

将鼠标移到小点上方,可查看气象台名称。

然后点击查看天气观测和预报。

如需切换地图:点击带黑十字的绿色按钮放大地图;点击带横线的绿色按钮缩小地图;或者点击绿色箭头查看邻近地区的地图。


METAR-TAF: